createdAt,value
2022-09-26T00:02:18.594Z,12.94
2022-09-26T00:04:45.149Z,11.10
2022-09-26T00:07:11.591Z,10.24
2022-09-26T00:09:37.971Z,7.02
2022-09-26T00:12:04.414Z,7.99
2022-09-26T00:14:30.830Z,9.53
2022-09-26T00:16:57.351Z,14.34
2022-09-26T00:19:24.439Z,22.72
2022-09-26T00:21:50.923Z,25.62
2022-09-26T00:24:17.477Z,32.14
2022-09-26T00:26:43.863Z,41.71
2022-09-26T00:29:11.256Z,47.81
2022-09-26T00:31:44.246Z,51.68
2022-09-26T00:34:12.445Z,52.57
2022-09-26T00:36:39.192Z,49.15
2022-09-26T00:39:07.499Z,47.48
2022-09-26T00:41:34.031Z,54.95
2022-09-26T00:44:00.693Z,55.43
2022-09-26T00:46:31.347Z,51.89
2022-09-26T00:49:34.071Z,56.45
2022-09-26T00:52:08.805Z,58.11
2022-09-26T00:54:35.397Z,49.63
2022-09-26T00:57:04.804Z,49.92
2022-09-26T00:59:36.212Z,51.08
2022-09-26T01:02:04.496Z,59.72
2022-09-26T01:04:32.099Z,68.92
2022-09-26T01:06:59.333Z,72.05
2022-09-26T01:09:26.238Z,78.81
2022-09-26T01:11:53.543Z,93.52
2022-09-26T01:14:19.950Z,95.76
2022-09-26T01:16:47.983Z,81.33
2022-09-26T01:19:31.662Z,72.80
2022-09-26T01:22:19.646Z,64.44
2022-09-26T01:25:04.296Z,89.09
2022-09-26T01:27:57.954Z,93.58
2022-09-26T01:30:28.393Z,87.01
2022-09-26T01:33:32.456Z,100.00
2022-09-26T01:36:46.998Z,100.00
2022-09-26T01:39:29.482Z,100.00
2022-09-26T01:42:04.506Z,100.00
2022-09-26T01:44:34.498Z,100.00
2022-09-26T01:47:19.180Z,100.00
2022-09-26T01:49:57.546Z,87.08
2022-09-26T01:52:55.304Z,83.93
2022-09-26T01:55:28.059Z,88.44
2022-09-26T01:58:03.515Z,91.16
2022-09-26T02:00:30.118Z,100.00
2022-09-26T02:02:56.562Z,100.00
2022-09-26T02:05:35.416Z,100.00
2022-09-26T02:08:29.810Z,100.00
2022-09-26T02:11:02.027Z,100.00
2022-09-26T02:13:37.410Z,100.00
2022-09-26T02:16:09.200Z,100.00
2022-09-26T02:18:39.482Z,100.00
2022-09-26T02:21:19.136Z,100.00
2022-09-26T02:23:46.989Z,100.00
2022-09-26T02:26:13.386Z,100.00
2022-09-26T02:28:39.778Z,100.00
2022-09-26T02:31:08.323Z,99.02
2022-09-26T02:33:35.726Z,97.99
2022-09-26T02:36:07.465Z,100.00
2022-09-26T02:38:34.631Z,100.00
2022-09-26T02:41:09.066Z,100.00
2022-09-26T02:44:01.986Z,100.00
2022-09-26T02:46:39.639Z,100.00
2022-09-26T02:49:24.572Z,98.98
2022-09-26T02:51:59.978Z,92.30
2022-09-26T02:54:32.249Z,87.92
2022-09-26T02:57:01.598Z,79.19
2022-09-26T02:59:36.496Z,75.21
2022-09-26T03:02:02.870Z,73.09
2022-09-26T03:04:52.193Z,68.10
2022-09-26T03:07:26.847Z,67.73
2022-09-26T03:09:53.234Z,63.95
2022-09-26T03:12:19.725Z,59.73
2022-09-26T03:14:46.104Z,56.86
2022-09-26T03:17:12.484Z,54.75
2022-09-26T03:19:53.821Z,52.06
2022-09-26T03:22:20.615Z,47.83
2022-09-26T03:24:47.061Z,51.58
2022-09-26T03:27:13.542Z,55.48
2022-09-26T03:29:39.995Z,55.83
2022-09-26T03:32:06.712Z,59.54
2022-09-26T03:34:33.479Z,61.37
2022-09-26T03:36:59.859Z,62.31
2022-09-26T03:39:26.287Z,52.93
2022-09-26T03:41:53.662Z,55.82
2022-09-26T03:44:20.504Z,59.04
2022-09-26T03:46:47.269Z,59.10
2022-09-26T03:49:13.753Z,54.78
2022-09-26T03:51:40.233Z,55.46
2022-09-26T03:54:06.709Z,53.11
2022-09-26T03:56:33.205Z,52.04
2022-09-26T03:58:59.577Z,54.96
2022-09-26T04:01:26.522Z,51.02
2022-09-26T04:03:52.967Z,42.70
2022-09-26T04:06:20.225Z,36.73
2022-09-26T04:08:48.416Z,31.68
2022-09-26T04:11:16.118Z,24.37
2022-09-26T04:13:52.754Z,19.11
2022-09-26T04:16:20.615Z,16.02
2022-09-26T04:18:47.178Z,18.64
2022-09-26T04:21:16.727Z,17.42
2022-09-26T04:23:43.657Z,15.79
2022-09-26T04:26:18.720Z,15.29
2022-09-26T04:28:50.956Z,13.37
2022-09-26T04:31:17.477Z,10.96
2022-09-26T04:33:43.877Z,10.10
2022-09-26T04:36:14.164Z,8.97
2022-09-26T04:38:41.125Z,8.38
2022-09-26T04:41:09.470Z,9.46
2022-09-26T04:43:35.980Z,7.77
2022-09-26T04:46:06.022Z,5.08
2022-09-26T04:48:32.483Z,2.96
2022-09-26T04:50:58.878Z,2.03
2022-09-26T04:53:25.246Z,0.83
2022-09-26T04:55:54.339Z,0.00
2022-09-26T04:58:20.791Z,0.00
2022-09-26T05:00:50.291Z,0.00
2022-09-26T05:03:16.933Z,0.00
2022-09-26T05:05:50.473Z,0.00
2022-09-26T05:08:17.000Z,0.00
2022-09-26T05:10:43.492Z,0.00
2022-09-26T05:13:10.315Z,0.00
2022-09-26T05:15:39.844Z,0.00
2022-09-26T05:18:07.750Z,0.00
2022-09-26T05:20:45.420Z,0.00
2022-09-26T05:23:11.804Z,0.00
2022-09-26T05:25:57.993Z,0.00
2022-09-26T05:28:25.066Z,0.00
2022-09-26T05:30:51.936Z,0.00
2022-09-26T05:33:21.709Z,0.00
2022-09-26T05:35:53.325Z,0.00
2022-09-26T05:38:19.745Z,0.00
2022-09-26T05:40:58.258Z,0.00
2022-09-26T05:43:26.866Z,0.00
2022-09-26T05:46:00.834Z,0.00
2022-09-26T05:48:27.227Z,0.00
2022-09-26T05:50:53.642Z,0.00
2022-09-26T05:53:20.077Z,0.00
2022-09-26T05:55:52.407Z,0.00
2022-09-26T05:58:18.945Z,0.00
2022-09-26T06:00:48.949Z,0.00
2022-09-26T06:03:15.533Z,0.00
2022-09-26T06:05:42.546Z,0.00
2022-09-26T06:08:09.893Z,0.00
2022-09-26T06:10:37.666Z,0.00
2022-09-26T06:13:04.245Z,0.00
2022-09-26T06:15:30.605Z,0.00
2022-09-26T06:18:00.725Z,0.00
2022-09-26T06:20:27.290Z,0.00
2022-09-26T06:22:55.106Z,0.00
2022-09-26T06:25:21.580Z,0.00
2022-09-26T06:27:48.795Z,0.00
2022-09-26T06:30:16.292Z,0.00
2022-09-26T06:32:42.718Z,0.00
2022-09-26T06:35:09.383Z,0.00
2022-09-26T06:37:35.792Z,0.00
2022-09-26T06:40:02.201Z,0.00
2022-09-26T06:42:37.897Z,0.00
2022-09-26T06:45:06.581Z,0.00
2022-09-26T06:47:33.636Z,0.00
2022-09-26T06:50:00.119Z,0.00
2022-09-26T06:52:26.864Z,0.00
2022-09-26T06:54:55.305Z,0.00
2022-09-26T06:57:21.863Z,0.00
2022-09-26T06:59:48.686Z,0.00
2022-09-26T07:02:16.725Z,0.00
2022-09-26T07:04:43.208Z,0.00
2022-09-26T07:07:09.584Z,0.00
2022-09-26T07:09:35.985Z,0.00
2022-09-26T07:12:17.956Z,0.00
2022-09-26T07:14:44.417Z,1.43
2022-09-26T07:17:14.319Z,1.85
2022-09-26T07:19:40.855Z,5.41
2022-09-26T07:22:08.005Z,4.80
2022-09-26T07:24:34.958Z,1.69
2022-09-26T07:27:02.059Z,20.73
2022-09-26T07:29:28.738Z,21.51
2022-09-26T07:31:55.501Z,22.65
2022-09-26T07:34:24.884Z,20.41
2022-09-26T07:36:51.917Z,21.39
2022-09-26T07:39:18.539Z,16.72
2022-09-26T07:41:46.157Z,22.38
2022-09-26T07:47:18.259Z,24.18
2022-09-26T07:50:02.825Z,23.70
2022-09-26T07:52:29.285Z,23.75
2022-09-26T07:54:55.643Z,17.09
2022-09-26T07:57:22.101Z,22.70
2022-09-26T07:59:50.365Z,25.31
2022-09-26T08:02:24.591Z,20.34
2022-09-26T08:04:51.345Z,15.28
2022-09-26T08:07:17.732Z,16.14
2022-09-26T08:09:44.165Z,16.62
2022-09-26T08:12:10.944Z,20.36
2022-09-26T08:14:37.509Z,24.14
2022-09-26T08:17:04.014Z,28.11
2022-09-26T08:19:30.472Z,31.25
2022-09-26T08:21:58.981Z,45.02
2022-09-26T08:24:25.352Z,46.57
2022-09-26T08:26:54.715Z,48.38
2022-09-26T08:29:23.476Z,50.86
2022-09-26T08:31:51.365Z,51.08
2022-09-26T08:34:22.669Z,51.52
2022-09-26T08:36:54.799Z,51.07
2022-09-26T08:39:21.814Z,51.55
2022-09-26T08:41:52.128Z,50.17
2022-09-26T08:44:25.150Z,48.61
2022-09-26T08:47:21.467Z,52.73
2022-09-26T08:50:00.170Z,45.41
2022-09-26T08:52:36.650Z,49.32
2022-09-26T08:55:07.679Z,52.01
2022-09-26T08:57:37.048Z,55.12
2022-09-26T09:00:09.913Z,56.55
2022-09-26T09:02:44.446Z,51.34
2022-09-26T09:05:32.933Z,59.64
2022-09-26T09:08:00.140Z,69.43
2022-09-26T09:10:46.572Z,75.85
2022-09-26T09:13:24.944Z,96.41
2022-09-26T09:16:00.642Z,92.15
2022-09-26T09:18:33.225Z,89.26
2022-09-26T09:21:38.024Z,90.35
2022-09-26T09:24:29.110Z,98.57
2022-09-26T09:29:54.061Z,100.00
2022-09-26T09:32:21.728Z,100.00
2022-09-26T09:34:53.680Z,100.00
2022-09-26T09:37:25.734Z,100.00
2022-09-26T09:39:52.138Z,100.00
2022-09-26T09:42:44.185Z,100.00
2022-09-26T09:45:30.911Z,100.00
2022-09-26T09:47:57.305Z,100.00
2022-09-26T09:50:30.551Z,100.00
2022-09-26T09:53:28.751Z,100.00
2022-09-26T09:56:06.291Z,100.00
2022-09-26T09:58:47.840Z,100.00
2022-09-26T10:01:26.148Z,100.00
2022-09-26T10:04:01.296Z,100.00
2022-09-26T10:06:46.579Z,100.00
2022-09-26T10:09:39.975Z,100.00
2022-09-26T10:12:16.180Z,100.00
2022-09-26T10:15:03.960Z,100.00
2022-09-26T10:17:31.082Z,100.00
2022-09-26T10:19:57.494Z,100.00
2022-09-26T10:22:32.689Z,100.00
2022-09-26T10:25:18.660Z,100.00
2022-09-26T10:27:50.050Z,100.00
2022-09-26T10:30:19.451Z,100.00
2022-09-26T10:32:55.456Z,100.00
2022-09-26T10:35:42.509Z,100.00
2022-09-26T10:38:22.626Z,100.00
2022-09-26T10:40:55.204Z,100.00
2022-09-26T10:43:21.897Z,100.00
2022-09-26T10:46:16.669Z,100.00
2022-09-26T10:48:49.276Z,100.00
2022-09-26T10:51:20.259Z,100.00
2022-09-26T10:53:48.567Z,100.00
2022-09-26T10:56:23.058Z,100.00
2022-09-26T10:58:52.089Z,100.00
2022-09-26T11:01:22.826Z,100.00
2022-09-26T11:03:49.374Z,100.00
2022-09-26T11:06:35.120Z,100.00
2022-09-26T11:09:03.190Z,100.00
2022-09-26T11:11:33.186Z,100.00
2022-09-26T11:14:08.361Z,100.00
2022-09-26T11:16:43.963Z,100.00
2022-09-26T11:19:15.538Z,100.00
2022-09-26T11:21:47.331Z,100.00
2022-09-26T11:24:22.077Z,100.00
2022-09-26T11:27:10.212Z,100.00
2022-09-26T11:32:38.774Z,100.00
2022-09-26T11:40:55.746Z,100.00
2022-09-26T11:43:45.591Z,100.00
2022-09-26T11:46:49.446Z,100.00
2022-09-26T11:49:23.227Z,100.00
2022-09-26T11:52:08.387Z,100.00
2022-09-26T11:54:42.756Z,100.00
2022-09-26T11:57:38.352Z,100.00
2022-09-26T12:00:27.633Z,100.00
2022-09-26T12:03:19.812Z,100.00
2022-09-26T12:05:54.149Z,100.00
2022-09-26T12:08:32.686Z,100.00
2022-09-26T12:11:00.374Z,100.00
2022-09-26T12:13:34.985Z,100.00
2022-09-26T12:16:29.310Z,100.00
2022-09-26T12:19:14.126Z,100.00
2022-09-26T12:22:02.563Z,100.00
2022-09-26T12:24:35.648Z,100.00
2022-09-26T12:27:11.525Z,100.00
2022-09-26T12:29:53.773Z,100.00
2022-09-26T12:32:29.360Z,100.00
2022-09-26T12:35:08.147Z,100.00
2022-09-26T12:38:02.867Z,100.00
2022-09-26T12:40:38.989Z,100.00
2022-09-26T12:43:13.964Z,100.00
2022-09-26T12:46:03.413Z,100.00
2022-09-26T12:48:58.839Z,100.00
2022-09-26T12:51:38.618Z,100.00
2022-09-26T12:54:23.856Z,100.00
2022-09-26T12:56:50.391Z,100.00
2022-09-26T12:59:39.892Z,100.00
2022-09-26T13:02:25.752Z,100.00
2022-09-26T13:05:11.903Z,100.00
2022-09-26T13:07:42.186Z,100.00
2022-09-26T13:10:21.948Z,100.00
2022-09-26T13:12:57.421Z,100.00
2022-09-26T13:15:46.445Z,100.00
2022-09-26T13:18:20.920Z,100.00
2022-09-26T13:20:56.280Z,100.00
2022-09-26T13:23:30.037Z,100.00
2022-09-26T13:25:59.717Z,100.00
2022-09-26T13:28:33.693Z,100.00
2022-09-26T13:31:03.203Z,100.00
2022-09-26T13:33:39.596Z,100.00
2022-09-26T13:36:09.390Z,100.00
2022-09-26T13:38:53.137Z,100.00
2022-09-26T13:41:32.524Z,100.00
2022-09-26T13:44:19.492Z,100.00
2022-09-26T13:47:07.627Z,100.00
2022-09-26T13:49:42.811Z,100.00
2022-09-26T13:52:21.337Z,100.00
2022-09-26T13:55:02.238Z,100.00
2022-09-26T13:57:31.893Z,100.00
2022-09-26T13:59:58.577Z,100.00
2022-09-26T14:02:28.430Z,100.00
2022-09-26T14:05:13.508Z,100.00
2022-09-26T14:07:58.692Z,100.00
2022-09-26T14:10:25.121Z,100.00
2022-09-26T14:13:03.288Z,100.00
2022-09-26T14:15:51.025Z,100.00
2022-09-26T14:18:20.242Z,100.00
2022-09-26T14:21:01.506Z,100.00
2022-09-26T14:23:37.519Z,100.00
2022-09-26T14:26:21.147Z,100.00
2022-09-26T14:28:54.942Z,100.00
2022-09-26T14:31:24.921Z,100.00
2022-09-26T14:34:17.468Z,100.00
2022-09-26T14:36:44.529Z,100.00
2022-09-26T14:39:23.415Z,100.00
2022-09-26T14:41:49.819Z,100.00
2022-09-26T14:44:17.827Z,100.00
2022-09-26T14:46:44.311Z,100.00
2022-09-26T14:49:25.168Z,100.00
2022-09-26T14:51:58.720Z,100.00
2022-09-26T14:54:43.830Z,100.00
2022-09-26T14:57:21.174Z,100.00
2022-09-26T14:59:47.809Z,100.00
2022-09-26T15:02:14.348Z,100.00
2022-09-26T15:04:44.285Z,100.00
2022-09-26T15:07:24.684Z,100.00
2022-09-26T15:10:36.700Z,100.00
2022-09-26T15:13:09.618Z,100.00
2022-09-26T15:15:42.143Z,100.00
2022-09-26T15:18:31.428Z,100.00
2022-09-26T15:21:04.625Z,100.00
2022-09-26T15:23:33.152Z,100.00
2022-09-26T15:26:02.548Z,100.00
2022-09-26T15:28:31.654Z,100.00
2022-09-26T15:31:37.497Z,100.00
2022-09-26T15:34:09.190Z,100.00
2022-09-26T15:36:36.181Z,100.00
2022-09-26T15:39:25.845Z,100.00
2022-09-26T15:42:10.789Z,100.00
2022-09-26T15:44:37.199Z,100.00
2022-09-26T15:47:35.127Z,100.00
2022-09-26T15:50:21.183Z,100.00
2022-09-26T15:53:16.962Z,100.00
2022-09-26T15:55:52.295Z,100.00
2022-09-26T15:58:23.166Z,100.00
2022-09-26T16:00:51.378Z,100.00
2022-09-26T16:03:27.196Z,100.00
2022-09-26T16:05:53.873Z,100.00
2022-09-26T16:08:21.713Z,100.00
2022-09-26T16:10:56.190Z,100.00
2022-09-26T16:13:25.422Z,100.00
2022-09-26T16:16:06.071Z,100.00
2022-09-26T16:18:40.164Z,100.00
2022-09-26T16:21:20.875Z,100.00
2022-09-26T16:23:49.167Z,100.00
2022-09-26T16:26:31.655Z,100.00
2022-09-26T16:28:59.413Z,100.00
2022-09-26T16:31:28.648Z,100.00
2022-09-26T16:33:56.774Z,100.00
2022-09-26T16:36:30.896Z,100.00
2022-09-26T16:39:05.372Z,100.00
2022-09-26T16:44:40.314Z,100.00
2022-09-26T16:47:29.432Z,100.00
2022-09-26T16:49:55.874Z,100.00
2022-09-26T16:52:32.744Z,100.00
2022-09-26T16:55:00.575Z,100.00
2022-09-26T16:57:34.697Z,100.00
2022-09-26T17:00:22.259Z,100.00
2022-09-26T17:02:48.816Z,100.00
2022-09-26T17:05:20.168Z,100.00
2022-09-26T17:07:47.743Z,100.00
2022-09-26T17:10:14.541Z,100.00
2022-09-26T17:12:41.013Z,100.00
2022-09-26T17:15:08.788Z,100.00
2022-09-26T17:17:35.229Z,100.00
2022-09-26T17:20:01.961Z,100.00
2022-09-26T17:22:28.454Z,100.00
2022-09-26T17:24:54.951Z,100.00
2022-09-26T17:27:22.662Z,100.00
2022-09-26T17:29:50.157Z,100.00
2022-09-26T17:32:29.326Z,100.00
2022-09-26T17:35:17.031Z,100.00
2022-09-26T17:37:43.446Z,100.00
2022-09-26T17:40:19.110Z,100.00
2022-09-26T17:42:46.013Z,100.00
2022-09-26T17:45:12.440Z,100.00
2022-09-26T17:47:39.211Z,100.00
2022-09-26T17:50:06.643Z,100.00
2022-09-26T17:52:33.253Z,100.00
2022-09-26T17:55:02.209Z,100.00
2022-09-26T17:57:30.241Z,100.00
2022-09-26T17:59:57.252Z,100.00
2022-09-26T18:02:30.966Z,100.00
2022-09-26T18:04:59.141Z,100.00
2022-09-26T18:07:31.279Z,100.00
2022-09-26T18:09:58.926Z,100.00
2022-09-26T18:12:25.541Z,100.00
2022-09-26T18:14:51.987Z,100.00
2022-09-26T18:17:18.567Z,100.00
2022-09-26T18:19:45.097Z,100.00
2022-09-26T18:22:15.585Z,100.00
2022-09-26T18:24:42.060Z,100.00
2022-09-26T18:27:10.787Z,100.00
2022-09-26T18:29:38.527Z,100.00
2022-09-26T18:32:06.415Z,100.00
2022-09-26T18:34:32.886Z,100.00
2022-09-26T18:37:00.526Z,100.00
2022-09-26T18:39:27.546Z,100.00
2022-09-26T18:42:00.920Z,100.00
2022-09-26T18:44:27.441Z,100.00
2022-09-26T18:46:58.231Z,100.00
2022-09-26T18:49:29.763Z,100.00
2022-09-26T18:51:56.165Z,100.00
2022-09-26T18:54:24.615Z,100.00
2022-09-26T18:57:09.737Z,100.00
2022-09-26T18:59:36.139Z,100.00
2022-09-26T19:02:04.917Z,100.00
2022-09-26T19:04:31.518Z,100.00
2022-09-26T19:07:00.759Z,100.00
2022-09-26T19:09:31.324Z,100.00
2022-09-26T19:11:57.744Z,100.00
2022-09-26T19:14:25.753Z,100.00
2022-09-26T19:16:52.238Z,100.00
2022-09-26T19:19:18.762Z,100.00
2022-09-26T19:21:59.297Z,100.00
2022-09-26T19:24:36.320Z,100.00
2022-09-26T19:27:06.470Z,100.00
2022-09-26T19:29:43.805Z,100.00
2022-09-26T19:32:23.706Z,100.00
2022-09-26T19:34:52.910Z,100.00
2022-09-26T19:37:19.370Z,100.00
2022-09-26T19:39:45.776Z,100.00
2022-09-26T19:42:12.296Z,100.00
2022-09-26T19:44:38.701Z,100.00
2022-09-26T19:47:05.184Z,100.00
2022-09-26T19:49:32.098Z,100.00
2022-09-26T19:52:01.214Z,100.00
2022-09-26T19:54:27.641Z,100.00
2022-09-26T19:56:54.089Z,100.00
2022-09-26T19:59:24.037Z,100.00
2022-09-26T20:01:53.165Z,100.00
2022-09-26T20:04:19.621Z,100.00
2022-09-26T20:06:46.629Z,100.00
2022-09-26T20:09:18.060Z,100.00
2022-09-26T20:11:44.671Z,100.00
2022-09-26T20:14:23.163Z,100.00
2022-09-26T20:16:50.566Z,100.00
2022-09-26T20:19:32.366Z,100.00
2022-09-26T20:21:59.940Z,100.00
2022-09-26T20:24:26.757Z,100.00
2022-09-26T20:26:53.164Z,100.00
2022-09-26T20:29:19.595Z,100.00
2022-09-26T20:31:47.304Z,100.00
2022-09-26T20:34:17.007Z,100.00
2022-09-26T20:36:48.843Z,100.00
2022-09-26T20:39:18.231Z,100.00
2022-09-26T20:41:44.674Z,100.00
2022-09-26T20:44:12.651Z,100.00
2022-09-26T20:46:40.436Z,100.00
2022-09-26T20:49:08.707Z,100.00
2022-09-26T20:51:35.171Z,100.00
2022-09-26T20:54:02.410Z,100.00
2022-09-26T20:56:28.921Z,100.00
2022-09-26T20:58:55.304Z,100.00
2022-09-26T21:01:22.053Z,100.00
2022-09-26T21:03:52.801Z,100.00
2022-09-26T21:06:23.691Z,100.00
2022-09-26T21:08:50.261Z,100.00
2022-09-26T21:11:18.901Z,100.00
2022-09-26T21:13:45.343Z,100.00
2022-09-26T21:16:15.764Z,100.00
2022-09-26T21:18:43.347Z,100.00
2022-09-26T21:21:16.347Z,100.00
2022-09-26T21:23:42.844Z,100.00
2022-09-26T21:26:19.611Z,100.00
2022-09-26T21:28:46.381Z,100.00
2022-09-26T21:31:39.134Z,100.00
2022-09-26T21:34:05.520Z,100.00
2022-09-26T21:36:35.840Z,100.00
2022-09-26T21:39:02.354Z,100.00
2022-09-26T21:41:29.326Z,100.00
2022-09-26T21:43:58.402Z,100.00
2022-09-26T21:46:27.011Z,100.00
2022-09-26T21:48:53.484Z,100.00
2022-09-26T21:51:20.598Z,100.00
2022-09-26T21:53:49.495Z,100.00
2022-09-26T21:56:20.013Z,100.00
2022-09-26T21:58:46.423Z,100.00
2022-09-26T22:01:14.179Z,100.00
2022-09-26T22:03:41.308Z,100.00
2022-09-26T22:06:09.311Z,100.00
2022-09-26T22:08:36.899Z,100.00
2022-09-26T22:11:03.665Z,100.00
2022-09-26T22:13:30.135Z,100.00
2022-09-26T22:15:56.572Z,100.00
2022-09-26T22:18:22.983Z,100.00
2022-09-26T22:20:58.443Z,100.00
2022-09-26T22:23:24.837Z,100.00
2022-09-26T22:25:51.680Z,100.00
2022-09-26T22:28:18.100Z,100.00
2022-09-26T22:30:44.607Z,100.00
2022-09-26T22:33:11.275Z,100.00
2022-09-26T22:35:37.673Z,100.00
2022-09-26T22:38:04.099Z,100.00
2022-09-26T22:40:30.560Z,100.00
2022-09-26T22:42:57.003Z,100.00
2022-09-26T22:45:23.405Z,100.00
2022-09-26T22:47:49.785Z,100.00
2022-09-26T22:50:16.203Z,100.00
2022-09-26T22:52:42.604Z,100.00
2022-09-26T22:55:09.201Z,100.00
2022-09-26T22:57:35.954Z,100.00
2022-09-26T23:00:03.932Z,97.01
2022-09-26T23:02:30.418Z,87.94
2022-09-26T23:04:56.835Z,83.03
2022-09-26T23:07:23.304Z,76.54
2022-09-26T23:09:49.707Z,74.34
2022-09-26T23:12:16.169Z,46.76
2022-09-26T23:14:42.605Z,28.67
2022-09-26T23:17:09.071Z,16.59
2022-09-26T23:19:35.524Z,0.00
2022-09-26T23:22:01.994Z,0.00
2022-09-26T23:24:28.393Z,0.00
2022-09-26T23:26:57.003Z,0.00
2022-09-26T23:29:23.412Z,0.00
2022-09-26T23:31:50.898Z,0.00
2022-09-26T23:34:17.478Z,0.00
2022-09-26T23:36:44.396Z,0.00
2022-09-26T23:39:10.990Z,0.00
2022-09-26T23:41:37.423Z,0.00
2022-09-26T23:44:03.867Z,0.00
2022-09-26T23:46:30.314Z,2.68
2022-09-26T23:48:56.837Z,10.15
2022-09-26T23:51:23.237Z,11.29
2022-09-26T23:53:49.663Z,24.83
2022-09-26T23:56:16.860Z,32.82
2022-09-26T23:58:43.679Z,38.42
